createdAt,value
2017-12-03T00:00:47.417Z,86.83
2017-12-03T00:01:47.279Z,86.45
2017-12-03T00:02:47.139Z,86.64
2017-12-03T00:03:46.999Z,86.36
2017-12-03T00:04:46.858Z,86.45
2017-12-03T00:05:46.721Z,86.64
2017-12-03T00:06:46.591Z,86.26
2017-12-03T00:07:46.445Z,85.98
2017-12-03T00:08:46.313Z,85.79
2017-12-03T00:09:46.168Z,85.98
2017-12-03T00:10:46.034Z,86.45
2017-12-03T00:11:45.890Z,86.45
2017-12-03T00:12:45.752Z,86.83
2017-12-03T00:13:45.614Z,86.26
2017-12-03T00:14:45.477Z,86.45
2017-12-03T00:15:45.338Z,86.07
2017-12-03T00:16:45.198Z,85.79
2017-12-03T00:17:45.061Z,86.07
2017-12-03T00:18:44.922Z,86.07
2017-12-03T00:19:44.780Z,85.88
2017-12-03T00:20:44.645Z,85.98
2017-12-03T00:21:44.507Z,85.22
2017-12-03T00:22:44.367Z,84.66
2017-12-03T00:23:44.229Z,83.34
2017-12-03T00:24:44.089Z,83.25
2017-12-03T00:25:43.951Z,83.53
2017-12-03T00:26:43.814Z,83.25
2017-12-03T00:27:43.695Z,83.81
2017-12-03T00:28:43.535Z,83.62
2017-12-03T00:29:43.398Z,83.62
2017-12-03T00:30:43.259Z,83.34
2017-12-03T00:31:43.116Z,83.15
2017-12-03T00:32:42.980Z,83.15
2017-12-03T00:33:42.842Z,83.25
2017-12-03T00:34:42.703Z,82.97
2017-12-03T00:35:42.561Z,83.15
2017-12-03T00:36:42.425Z,83.62
2017-12-03T00:37:42.284Z,84.28
2017-12-03T00:38:42.146Z,84.47
2017-12-03T00:39:42.010Z,84.28
2017-12-03T00:40:41.867Z,84.28
2017-12-03T00:41:41.729Z,84.66
2017-12-03T00:42:41.590Z,84.66
2017-12-03T00:43:41.450Z,84.75
2017-12-03T00:44:41.311Z,84.66
2017-12-03T00:45:41.171Z,85.13
2017-12-03T00:46:41.033Z,85.41
2017-12-03T00:47:40.892Z,85.60
2017-12-03T00:48:40.754Z,85.32
2017-12-03T00:49:40.614Z,85.41
2017-12-03T00:50:40.473Z,85.22
2017-12-03T00:51:40.338Z,85.22
2017-12-03T00:52:40.198Z,84.38
2017-12-03T00:53:40.056Z,83.91
2017-12-03T00:54:39.918Z,83.72
2017-12-03T00:55:39.778Z,84.00
2017-12-03T00:56:39.638Z,84.00
2017-12-03T00:57:39.499Z,84.85
2017-12-03T00:58:39.360Z,84.94
2017-12-03T00:59:39.219Z,85.60
2017-12-03T01:00:39.080Z,85.41
2017-12-03T01:01:38.942Z,85.32
2017-12-03T01:02:38.806Z,85.04
2017-12-03T01:03:38.660Z,84.56
2017-12-03T01:04:38.523Z,83.81
2017-12-03T01:05:38.385Z,83.72
2017-12-03T01:06:38.244Z,83.62
2017-12-03T01:07:38.103Z,83.34
2017-12-03T01:08:37.961Z,83.25
2017-12-03T01:09:37.824Z,83.06
2017-12-03T01:10:37.684Z,83.25
2017-12-03T01:11:37.543Z,83.25
2017-12-03T01:12:37.407Z,83.62
2017-12-03T01:13:37.266Z,83.72
2017-12-03T01:14:37.125Z,83.91
2017-12-03T01:15:36.998Z,84.19
2017-12-03T01:16:36.846Z,84.09
2017-12-03T01:17:36.705Z,85.04
2017-12-03T01:18:36.566Z,84.66
2017-12-03T01:19:36.423Z,85.13
2017-12-03T01:20:36.286Z,84.66
2017-12-03T01:21:36.147Z,84.38
2017-12-03T01:22:36.007Z,84.38
2017-12-03T01:23:35.868Z,84.56
2017-12-03T01:24:35.726Z,83.44
2017-12-03T01:25:35.586Z,82.31
2017-12-03T01:26:35.448Z,81.65
2017-12-03T01:27:35.308Z,81.46
2017-12-03T01:28:35.174Z,80.90
2017-12-03T01:29:35.030Z,80.90
2017-12-03T01:30:34.890Z,81.46
2017-12-03T01:31:34.749Z,81.37
2017-12-03T01:32:34.609Z,81.84
2017-12-03T01:33:34.468Z,82.59
2017-12-03T01:34:34.331Z,83.15
2017-12-03T01:35:34.188Z,82.97
2017-12-03T01:36:34.050Z,83.25
2017-12-03T01:37:33.913Z,83.34
2017-12-03T01:38:33.772Z,83.44
2017-12-03T01:39:33.633Z,83.34
2017-12-03T01:40:33.515Z,83.72
2017-12-03T01:41:33.355Z,83.81
2017-12-03T01:42:33.213Z,84.00
2017-12-03T01:43:33.074Z,83.91
2017-12-03T01:44:32.935Z,84.09
2017-12-03T01:45:32.798Z,84.19
2017-12-03T01:46:32.653Z,84.66
2017-12-03T01:47:32.514Z,84.28
2017-12-03T01:48:32.377Z,84.00
2017-12-03T01:49:32.235Z,84.00
2017-12-03T01:50:32.094Z,84.47
2017-12-03T01:51:31.958Z,84.09
2017-12-03T01:52:31.817Z,84.09
2017-12-03T01:53:31.680Z,83.91
2017-12-03T01:54:31.537Z,83.81
2017-12-03T01:55:31.398Z,84.19
2017-12-03T01:56:31.259Z,84.09
2017-12-03T01:57:31.120Z,83.81
2017-12-03T01:58:30.986Z,83.53
2017-12-03T01:59:30.885Z,83.53
2017-12-03T02:00:30.701Z,83.62
2017-12-03T02:01:30.562Z,83.62
2017-12-03T02:02:30.423Z,84.19
2017-12-03T02:03:30.280Z,84.28
2017-12-03T02:04:30.144Z,84.00
2017-12-03T02:05:30.007Z,84.56
2017-12-03T02:06:29.864Z,84.09
2017-12-03T02:07:29.727Z,85.04
2017-12-03T02:08:29.584Z,84.38
2017-12-03T02:09:29.445Z,84.19
2017-12-03T02:10:29.306Z,84.38
2017-12-03T02:11:29.167Z,84.56
2017-12-03T02:12:29.030Z,84.19
2017-12-03T02:13:28.888Z,84.28
2017-12-03T02:14:28.747Z,84.38
2017-12-03T02:15:28.607Z,84.85
2017-12-03T02:16:28.467Z,84.94
2017-12-03T02:17:28.328Z,84.85
2017-12-03T02:18:28.191Z,84.85
2017-12-03T02:19:28.054Z,84.75
2017-12-03T02:20:27.908Z,84.75
2017-12-03T02:21:27.770Z,84.75
2017-12-03T02:22:27.630Z,84.94
2017-12-03T02:23:27.491Z,84.28
2017-12-03T02:24:27.349Z,84.38
2017-12-03T02:25:27.215Z,84.38
2017-12-03T02:26:27.084Z,84.47
2017-12-03T02:27:26.942Z,84.47
2017-12-03T02:28:26.796Z,84.85
2017-12-03T02:29:26.669Z,84.94
2017-12-03T02:30:26.514Z,84.19
2017-12-03T02:31:26.374Z,84.19
2017-12-03T02:32:26.242Z,84.66
2017-12-03T02:33:26.105Z,84.28
2017-12-03T02:34:25.958Z,84.47
2017-12-03T02:35:25.857Z,84.66
2017-12-03T02:36:25.679Z,84.75
2017-12-03T02:37:25.538Z,84.85
2017-12-03T02:38:25.398Z,85.04
2017-12-03T02:39:25.255Z,85.13
2017-12-03T02:40:25.125Z,83.91
2017-12-03T02:41:24.982Z,83.44
2017-12-03T02:42:24.840Z,83.62
2017-12-03T02:43:24.696Z,83.91
2017-12-03T02:44:24.560Z,84.09
2017-12-03T02:45:24.420Z,84.28
2017-12-03T02:46:24.330Z,84.19
2017-12-03T02:47:24.138Z,84.38
2017-12-03T02:48:23.996Z,84.56
2017-12-03T02:49:23.857Z,84.47
2017-12-03T02:50:23.723Z,84.85
2017-12-03T02:51:23.579Z,84.28
2017-12-03T02:52:23.437Z,84.56
2017-12-03T02:53:23.299Z,84.38
2017-12-03T02:54:23.158Z,84.09
2017-12-03T02:55:23.017Z,84.38
2017-12-03T02:56:22.877Z,84.19
2017-12-03T02:57:22.741Z,84.28
2017-12-03T02:58:22.596Z,84.66
2017-12-03T02:59:22.457Z,85.04
2017-12-03T03:00:22.317Z,84.66
2017-12-03T03:01:22.176Z,84.75
2017-12-03T03:02:22.038Z,84.09
2017-12-03T03:03:21.898Z,83.72
2017-12-03T03:04:21.756Z,83.72
2017-12-03T03:05:21.618Z,83.62
2017-12-03T03:06:21.476Z,84.28
2017-12-03T03:07:21.337Z,84.09
2017-12-03T03:08:21.195Z,84.38
2017-12-03T03:09:21.054Z,84.47
2017-12-03T03:10:20.916Z,84.38
2017-12-03T03:11:20.775Z,84.09
2017-12-03T03:12:20.636Z,84.38
2017-12-03T03:13:20.497Z,84.09
2017-12-03T03:14:20.358Z,83.91
2017-12-03T03:15:20.218Z,83.91
2017-12-03T03:16:20.078Z,83.91
2017-12-03T03:17:19.939Z,84.56
2017-12-03T03:18:19.800Z,84.85
2017-12-03T03:19:19.658Z,84.75
2017-12-03T03:20:19.520Z,84.75
2017-12-03T03:21:19.382Z,84.66
2017-12-03T03:22:19.241Z,85.41
2017-12-03T03:23:19.102Z,85.04
2017-12-03T03:24:18.959Z,84.85
2017-12-03T03:25:18.821Z,84.85
2017-12-03T03:26:18.681Z,85.22
2017-12-03T03:27:18.544Z,85.13
2017-12-03T03:28:18.413Z,84.94
2017-12-03T03:29:18.264Z,85.04
2017-12-03T03:30:18.129Z,85.22
2017-12-03T03:31:17.992Z,84.85
2017-12-03T03:32:17.865Z,85.32
2017-12-03T03:33:17.705Z,85.60
2017-12-03T03:34:17.582Z,85.22
2017-12-03T03:35:17.428Z,85.22
2017-12-03T03:36:17.289Z,85.18
2017-12-03T03:37:17.146Z,85.75
2017-12-03T03:38:17.006Z,85.60
2017-12-03T03:39:16.867Z,85.37
2017-12-03T03:40:16.725Z,85.18
2017-12-03T03:41:16.588Z,85.41
2017-12-03T03:42:16.448Z,85.22
2017-12-03T03:43:16.307Z,85.22
2017-12-03T03:44:16.165Z,85.22
2017-12-03T03:45:16.026Z,85.79
2017-12-03T03:46:15.892Z,85.94
2017-12-03T03:47:15.745Z,85.51
2017-12-03T03:48:15.606Z,85.70
2017-12-03T03:49:15.466Z,85.60
2017-12-03T03:50:15.324Z,85.32
2017-12-03T03:51:15.188Z,85.41
2017-12-03T03:52:15.046Z,85.32
2017-12-03T03:53:14.906Z,85.60
2017-12-03T03:54:14.768Z,85.60
2017-12-03T03:55:14.624Z,85.51
2017-12-03T03:56:14.484Z,85.22
2017-12-03T03:57:14.341Z,85.28
2017-12-03T03:58:14.205Z,85.37
2017-12-03T03:59:14.062Z,85.32
2017-12-03T04:00:13.926Z,85.65
2017-12-03T04:01:13.785Z,85.13
2017-12-03T04:02:13.642Z,85.47
2017-12-03T04:03:13.502Z,85.32
2017-12-03T04:04:13.361Z,85.18
2017-12-03T04:05:13.223Z,85.60
2017-12-03T04:06:13.083Z,85.09
2017-12-03T04:07:12.942Z,85.28
2017-12-03T04:08:12.799Z,85.09
2017-12-03T04:09:12.660Z,85.37
2017-12-03T04:10:12.520Z,85.75
2017-12-03T04:11:12.381Z,86.07
2017-12-03T04:12:12.259Z,86.13
2017-12-03T04:13:12.100Z,86.31
2017-12-03T04:14:11.961Z,85.94
2017-12-03T04:15:11.822Z,85.60
2017-12-03T04:16:11.681Z,85.56
2017-12-03T04:17:11.543Z,85.65
2017-12-03T04:18:11.400Z,85.28
2017-12-03T04:19:11.259Z,85.47
2017-12-03T04:20:11.120Z,85.18
2017-12-03T04:21:10.979Z,85.56
2017-12-03T04:22:10.839Z,85.56
2017-12-03T04:23:10.699Z,85.37
2017-12-03T04:24:10.560Z,85.37
2017-12-03T04:25:10.417Z,85.37
2017-12-03T04:26:10.278Z,85.28
2017-12-03T04:27:10.145Z,85.65
2017-12-03T04:28:09.997Z,85.56
2017-12-03T04:29:09.863Z,84.99
2017-12-03T04:30:09.720Z,85.18
2017-12-03T04:31:09.580Z,84.99
2017-12-03T04:32:09.440Z,85.47
2017-12-03T04:33:09.299Z,85.47
2017-12-03T04:34:09.162Z,85.37
2017-12-03T04:35:09.020Z,85.56
2017-12-03T04:36:08.879Z,85.28
2017-12-03T04:37:08.748Z,85.37
2017-12-03T04:38:08.600Z,85.65
2017-12-03T04:39:08.458Z,85.94
2017-12-03T04:40:08.325Z,85.75
2017-12-03T04:41:08.177Z,85.56
2017-12-03T04:42:08.038Z,86.41
2017-12-03T04:43:07.906Z,85.56
2017-12-03T04:44:07.759Z,85.75
2017-12-03T04:45:07.620Z,86.41
2017-12-03T04:46:07.479Z,86.13
2017-12-03T04:47:07.338Z,86.41
2017-12-03T04:48:07.199Z,85.56
2017-12-03T04:49:07.058Z,86.41
2017-12-03T04:50:06.918Z,86.41
2017-12-03T04:51:06.778Z,85.65
2017-12-03T04:52:06.637Z,86.13
2017-12-03T04:53:06.498Z,85.94
2017-12-03T04:54:06.355Z,85.84
2017-12-03T04:55:06.215Z,85.47
2017-12-03T04:56:06.081Z,85.84
2017-12-03T04:57:05.935Z,85.56
2017-12-03T04:58:05.794Z,85.65
2017-12-03T04:59:05.655Z,85.56
2017-12-03T05:00:05.512Z,85.56
2017-12-03T05:01:05.375Z,85.84
2017-12-03T05:02:05.234Z,86.50
2017-12-03T05:03:05.097Z,85.56
2017-12-03T05:04:04.954Z,85.75
2017-12-03T05:05:04.812Z,85.75
2017-12-03T05:06:04.673Z,85.84
2017-12-03T05:07:04.528Z,86.03
2017-12-03T05:08:04.391Z,85.65
2017-12-03T05:09:04.249Z,85.84
2017-12-03T05:10:04.107Z,86.03
2017-12-03T05:11:03.967Z,85.94
2017-12-03T05:12:03.826Z,86.03
2017-12-03T05:13:03.691Z,85.75
2017-12-03T05:14:03.546Z,85.94
2017-12-03T05:15:03.404Z,86.13
2017-12-03T05:16:03.264Z,85.75
2017-12-03T05:17:03.125Z,85.75
2017-12-03T05:18:02.985Z,86.41
2017-12-03T05:19:02.842Z,85.94
2017-12-03T05:20:02.700Z,85.84
2017-12-03T05:21:02.561Z,86.03
2017-12-03T05:22:02.422Z,85.84
2017-12-03T05:23:02.284Z,86.50
2017-12-03T05:24:02.138Z,85.56
2017-12-03T05:25:02.013Z,85.94
2017-12-03T05:26:01.860Z,85.84
2017-12-03T05:27:01.718Z,85.28
2017-12-03T05:28:01.575Z,85.75
2017-12-03T05:29:01.435Z,86.31
2017-12-03T05:30:01.296Z,85.56
2017-12-03T05:31:01.156Z,86.03
2017-12-03T05:32:01.011Z,85.94
2017-12-03T05:33:00.872Z,85.65
2017-12-03T05:34:00.736Z,86.22
2017-12-03T05:35:00.590Z,85.94
2017-12-03T05:36:00.447Z,86.22
2017-12-03T05:37:00.310Z,86.22
2017-12-03T05:38:00.171Z,85.84
2017-12-03T05:39:00.026Z,85.75
2017-12-03T05:39:59.885Z,85.84
2017-12-03T05:40:59.750Z,86.22
2017-12-03T05:41:59.605Z,86.03
2017-12-03T05:42:59.465Z,85.56
2017-12-03T05:43:59.339Z,85.94
2017-12-03T05:44:59.186Z,85.75
2017-12-03T05:45:59.041Z,86.22
2017-12-03T05:46:58.900Z,85.84
2017-12-03T05:47:58.855Z,86.03
2017-12-03T05:48:58.621Z,86.03
2017-12-03T05:49:58.481Z,86.41
2017-12-03T05:50:58.338Z,85.37
2017-12-03T05:51:58.198Z,85.47
2017-12-03T05:52:58.058Z,85.47
2017-12-03T05:53:57.920Z,85.94
2017-12-03T05:54:57.775Z,85.56
2017-12-03T05:55:57.632Z,86.03
2017-12-03T05:56:57.494Z,86.03
2017-12-03T05:57:57.352Z,86.13
2017-12-03T05:58:57.234Z,85.94
2017-12-03T05:59:57.136Z,86.13
2017-12-03T06:00:56.932Z,85.47
2017-12-03T06:01:56.790Z,85.47
2017-12-03T06:02:56.645Z,85.56
2017-12-03T06:03:56.506Z,85.84
2017-12-03T06:04:56.366Z,85.56
2017-12-03T06:05:56.225Z,85.65
2017-12-03T06:06:56.086Z,85.47
2017-12-03T06:07:55.942Z,85.94
2017-12-03T06:08:55.806Z,85.56
2017-12-03T06:09:55.684Z,85.47
2017-12-03T06:10:55.528Z,85.47
2017-12-03T06:11:55.379Z,85.84
2017-12-03T06:12:55.239Z,85.84
2017-12-03T06:13:55.096Z,85.65
2017-12-03T06:14:54.955Z,85.28
2017-12-03T06:15:54.816Z,85.47
2017-12-03T06:16:54.674Z,85.84
2017-12-03T06:17:54.533Z,86.03
2017-12-03T06:18:54.389Z,86.22
2017-12-03T06:19:54.252Z,85.37
2017-12-03T06:20:54.110Z,85.75
2017-12-03T06:21:53.971Z,85.75
2017-12-03T06:22:53.833Z,85.28
2017-12-03T06:23:53.689Z,85.18
2017-12-03T06:24:53.546Z,85.18
2017-12-03T06:25:53.408Z,85.94
2017-12-03T06:26:53.264Z,86.03
2017-12-03T06:27:53.126Z,85.84
2017-12-03T06:28:52.987Z,86.22
2017-12-03T06:29:52.845Z,86.31
2017-12-03T06:30:52.702Z,85.84
2017-12-03T06:31:52.564Z,85.75
2017-12-03T06:32:52.424Z,86.22
2017-12-03T06:33:52.286Z,86.13
2017-12-03T06:34:52.142Z,86.13
2017-12-03T06:35:52.002Z,86.31
2017-12-03T06:36:51.860Z,86.31
2017-12-03T06:37:51.720Z,86.13
2017-12-03T06:38:51.579Z,86.13
2017-12-03T06:39:51.448Z,86.31
2017-12-03T06:40:51.297Z,85.94
2017-12-03T06:41:51.158Z,85.75
2017-12-03T06:42:51.017Z,85.94
2017-12-03T06:43:50.875Z,86.41
2017-12-03T06:44:50.737Z,85.94
2017-12-03T06:45:50.593Z,86.31
2017-12-03T06:46:50.450Z,86.88
2017-12-03T06:47:50.310Z,86.41
2017-12-03T06:48:50.172Z,86.31
2017-12-03T06:49:50.032Z,86.69
2017-12-03T06:50:49.886Z,86.69
2017-12-03T06:51:49.748Z,86.78
2017-12-03T06:52:49.607Z,86.60
2017-12-03T06:53:49.466Z,85.84
2017-12-03T06:54:49.324Z,85.94
2017-12-03T06:55:49.183Z,85.84
2017-12-03T06:56:49.043Z,86.03
2017-12-03T06:57:48.903Z,85.75
2017-12-03T06:58:48.773Z,85.65
2017-12-03T06:59:48.618Z,85.75
2017-12-03T07:00:48.480Z,85.75
2017-12-03T07:01:48.339Z,86.22
2017-12-03T07:02:48.196Z,85.75
2017-12-03T07:03:48.058Z,85.65
2017-12-03T07:04:47.917Z,85.56
2017-12-03T07:05:47.776Z,85.65
2017-12-03T07:06:47.634Z,85.37
2017-12-03T07:07:47.495Z,85.37
2017-12-03T07:08:47.355Z,85.65
2017-12-03T07:09:47.240Z,85.75
2017-12-03T07:10:47.152Z,85.56
2017-12-03T07:11:46.933Z,85.37
2017-12-03T07:12:46.793Z,85.65
2017-12-03T07:13:46.654Z,85.18
2017-12-03T07:14:46.513Z,85.28
2017-12-03T07:15:46.372Z,85.56
2017-12-03T07:16:46.232Z,85.75
2017-12-03T07:17:46.090Z,85.18
2017-12-03T07:18:45.952Z,85.18
2017-12-03T07:19:45.823Z,85.28
2017-12-03T07:20:45.671Z,85.37
2017-12-03T07:21:45.531Z,85.28
2017-12-03T07:22:45.416Z,85.18
2017-12-03T07:23:45.252Z,84.99
2017-12-03T07:24:45.120Z,84.52
2017-12-03T07:25:44.969Z,84.90
2017-12-03T07:26:44.838Z,84.52
2017-12-03T07:27:44.686Z,85.09
2017-12-03T07:28:44.547Z,85.09
2017-12-03T07:29:44.407Z,84.90
2017-12-03T07:30:44.274Z,84.81
2017-12-03T07:31:44.131Z,84.71
2017-12-03T07:32:44.007Z,84.81
2017-12-03T07:33:43.853Z,84.62
2017-12-03T07:34:43.717Z,84.81
2017-12-03T07:35:43.565Z,84.81
2017-12-03T07:36:43.424Z,84.62
2017-12-03T07:37:43.291Z,84.71
2017-12-03T07:38:43.146Z,84.62
2017-12-03T07:39:43.010Z,84.62
2017-12-03T07:40:42.862Z,84.52
2017-12-03T07:41:42.725Z,85.18
2017-12-03T07:42:42.584Z,84.99
2017-12-03T07:43:42.453Z,85.09
2017-12-03T07:44:42.303Z,84.99
2017-12-03T07:45:42.162Z,85.09
2017-12-03T07:46:42.022Z,84.99
2017-12-03T07:47:41.885Z,85.09
2017-12-03T07:48:41.762Z,85.09
2017-12-03T07:49:41.601Z,84.71
2017-12-03T07:50:41.462Z,84.62
2017-12-03T07:51:41.322Z,84.99
2017-12-03T07:52:41.186Z,84.99
2017-12-03T07:53:41.040Z,85.09
2017-12-03T07:54:40.901Z,84.52
2017-12-03T07:55:40.762Z,84.81
2017-12-03T07:56:40.623Z,84.99
2017-12-03T07:57:40.479Z,84.62
2017-12-03T07:58:40.338Z,84.62
2017-12-03T07:59:40.198Z,84.71
2017-12-03T08:00:40.058Z,84.90
2017-12-03T08:01:39.918Z,83.96
2017-12-03T08:02:39.778Z,84.43
2017-12-03T08:03:39.640Z,84.71
2017-12-03T08:04:39.502Z,85.09
2017-12-03T08:05:39.360Z,85.09
2017-12-03T08:06:39.217Z,84.71
2017-12-03T08:07:39.076Z,84.85
2017-12-03T08:08:38.937Z,85.13
2017-12-03T08:09:38.802Z,84.75
2017-12-03T08:10:38.657Z,84.85
2017-12-03T08:11:38.520Z,84.28
2017-12-03T08:12:38.382Z,84.38
2017-12-03T08:13:38.243Z,84.94
2017-12-03T08:14:38.093Z,84.47
2017-12-03T08:15:37.956Z,84.66
2017-12-03T08:16:37.816Z,84.38
2017-12-03T08:17:37.687Z,84.38
2017-12-03T08:18:37.541Z,84.09
2017-12-03T08:19:37.401Z,84.38
2017-12-03T08:20:37.268Z,84.85
2017-12-03T08:21:37.123Z,84.66
2017-12-03T08:22:36.974Z,84.85
2017-12-03T08:23:36.841Z,84.85
2017-12-03T08:24:36.695Z,84.28
2017-12-03T08:25:36.567Z,84.38
2017-12-03T08:26:36.416Z,84.28
2017-12-03T08:27:36.281Z,83.81
2017-12-03T08:28:36.134Z,83.91
2017-12-03T08:29:35.993Z,84.09
2017-12-03T08:30:35.852Z,84.47
2017-12-03T08:31:35.713Z,84.85
2017-12-03T08:32:35.572Z,84.85
2017-12-03T08:33:35.433Z,84.19
2017-12-03T08:34:35.292Z,84.56
2017-12-03T08:35:35.152Z,84.28
2017-12-03T08:36:35.014Z,84.09
2017-12-03T08:37:34.873Z,84.19
2017-12-03T08:38:34.735Z,83.91
2017-12-03T08:39:34.592Z,83.81
2017-12-03T08:40:34.455Z,83.62
2017-12-03T08:41:34.321Z,83.91
2017-12-03T08:42:34.173Z,84.09
2017-12-03T08:43:34.036Z,84.19
2017-12-03T08:44:33.893Z,84.19
2017-12-03T08:45:33.756Z,84.28
2017-12-03T08:46:33.615Z,84.66
2017-12-03T08:47:33.478Z,84.28
2017-12-03T08:48:33.369Z,84.47
2017-12-03T08:49:33.194Z,84.28
2017-12-03T08:50:33.053Z,84.47
2017-12-03T08:51:32.914Z,84.56
2017-12-03T08:52:32.786Z,84.00
2017-12-03T08:53:32.643Z,84.09
2017-12-03T08:54:32.496Z,83.72
2017-12-03T08:55:32.357Z,83.53
2017-12-03T08:56:32.217Z,83.44
2017-12-03T08:57:32.077Z,83.53
2017-12-03T08:58:31.937Z,83.53
2017-12-03T08:59:31.799Z,83.34
2017-12-03T09:00:31.668Z,82.78
2017-12-03T09:01:31.519Z,83.44
2017-12-03T09:02:31.382Z,83.25
2017-12-03T09:03:31.241Z,83.44
2017-12-03T09:04:31.103Z,83.44
2017-12-03T09:05:30.964Z,83.15
2017-12-03T09:06:30.824Z,83.25
2017-12-03T09:07:30.686Z,83.62
2017-12-03T09:08:30.544Z,83.06
2017-12-03T09:09:30.404Z,83.34
2017-12-03T09:10:30.265Z,82.87
2017-12-03T09:11:30.127Z,83.34
2017-12-03T09:12:29.989Z,83.15
2017-12-03T09:13:29.852Z,82.97
2017-12-03T09:14:29.707Z,83.34
2017-12-03T09:15:29.569Z,83.44
2017-12-03T09:16:29.431Z,83.34
2017-12-03T09:17:29.292Z,83.06
2017-12-03T09:18:29.154Z,83.25
2017-12-03T09:19:29.011Z,82.97
2017-12-03T09:20:28.876Z,82.87
2017-12-03T09:21:28.733Z,82.59
2017-12-03T09:22:28.602Z,82.59
2017-12-03T09:23:28.463Z,82.31
2017-12-03T09:24:28.319Z,81.56
2017-12-03T09:25:28.202Z,81.84
2017-12-03T09:26:28.042Z,81.37
2017-12-03T09:27:27.942Z,81.18
2017-12-03T09:28:27.760Z,81.18
2017-12-03T09:29:27.627Z,80.42
2017-12-03T09:30:27.487Z,79.39
2017-12-03T09:31:27.346Z,79.01
2017-12-03T09:32:27.207Z,79.48
2017-12-03T09:33:27.072Z,78.86
2017-12-03T09:34:26.934Z,78.77
2017-12-03T09:35:26.792Z,78.49
2017-12-03T09:36:26.679Z,77.83
2017-12-03T09:37:26.521Z,77.07
2017-12-03T09:38:26.386Z,75.09
2017-12-03T09:39:26.261Z,74.43
2017-12-03T09:40:26.102Z,73.49
2017-12-03T09:41:26.247Z,73.77
2017-12-03T09:42:25.826Z,73.39
2017-12-03T09:43:25.720Z,72.83
2017-12-03T09:44:25.553Z,73.02
2017-12-03T09:45:25.413Z,73.11
2017-12-03T09:46:25.275Z,73.30
2017-12-03T09:47:25.137Z,72.64
2017-12-03T09:48:24.999Z,72.27
2017-12-03T09:49:24.862Z,71.64
2017-12-03T09:50:24.727Z,71.73
2017-12-03T09:51:24.589Z,71.55
2017-12-03T09:52:24.451Z,70.98
2017-12-03T09:53:24.314Z,70.14
2017-12-03T09:54:24.179Z,69.10
2017-12-03T09:55:24.041Z,69.67
2017-12-03T09:56:23.904Z,69.38
2017-12-03T09:57:23.822Z,69.76
2017-12-03T09:58:23.639Z,69.10
2017-12-03T09:59:23.516Z,68.63
2017-12-03T10:00:23.360Z,68.34
2017-12-03T10:01:23.224Z,68.72
2017-12-03T10:02:23.087Z,68.25
2017-12-03T10:03:22.953Z,68.72
2017-12-03T10:04:22.818Z,68.15
2017-12-03T10:05:22.681Z,67.59
2017-12-03T10:06:22.546Z,68.06
2017-12-03T10:07:22.409Z,68.06
2017-12-03T10:08:22.273Z,67.59
2017-12-03T10:09:22.138Z,67.97
2017-12-03T10:10:22.002Z,67.30
2017-12-03T10:11:21.868Z,67.53
2017-12-03T10:12:21.732Z,66.96
2017-12-03T10:13:21.600Z,66.30
2017-12-03T10:14:21.462Z,66.96
2017-12-03T10:15:21.326Z,67.25
2017-12-03T10:16:21.194Z,66.58
2017-12-03T10:17:21.060Z,65.36
2017-12-03T10:18:20.929Z,65.26
2017-12-03T10:19:20.793Z,64.89
2017-12-03T10:20:20.657Z,64.98
2017-12-03T10:21:20.520Z,64.23
2017-12-03T10:22:20.387Z,63.47
2017-12-03T10:23:20.254Z,63.22
2017-12-03T10:24:20.261Z,62.84
2017-12-03T10:25:19.983Z,62.56
2017-12-03T10:26:19.853Z,61.99
2017-12-03T10:27:19.759Z,61.05
2017-12-03T10:28:19.600Z,60.77
2017-12-03T10:29:19.452Z,60.02
2017-12-03T10:30:19.317Z,59.35
2017-12-03T10:31:19.185Z,59.83
2017-12-03T10:32:19.052Z,60.58
2017-12-03T10:33:18.920Z,60.58
2017-12-03T10:34:18.785Z,61.40
2017-12-03T10:35:18.682Z,63.10
2017-12-03T10:36:18.522Z,62.84
2017-12-03T10:37:18.386Z,62.75
2017-12-03T10:38:18.252Z,62.18
2017-12-03T10:39:18.119Z,63.13
2017-12-03T10:40:17.988Z,61.99
2017-12-03T10:41:17.855Z,61.71
2017-12-03T10:42:17.769Z,61.11
2017-12-03T10:43:17.589Z,61.43
2017-12-03T10:44:17.455Z,61.96
2017-12-03T10:45:17.326Z,62.66
2017-12-03T10:46:17.187Z,61.90
2017-12-03T10:47:17.055Z,60.83
2017-12-03T10:48:16.930Z,61.61
2017-12-03T10:49:16.789Z,61.52
2017-12-03T10:50:16.659Z,62.09
2017-12-03T10:51:16.521Z,61.71
2017-12-03T10:52:16.391Z,61.24
2017-12-03T10:53:16.256Z,60.77
2017-12-03T10:54:16.122Z,60.96
2017-12-03T10:55:15.986Z,60.83
2017-12-03T10:56:15.857Z,61.80
2017-12-03T10:57:15.726Z,62.47
2017-12-03T10:58:15.588Z,61.43
2017-12-03T10:59:15.453Z,60.77
2017-12-03T11:00:15.321Z,59.64
2017-12-03T11:01:15.189Z,60.11
2017-12-03T11:02:15.054Z,60.39
2017-12-03T11:03:14.921Z,60.58
2017-12-03T11:04:14.788Z,60.86
2017-12-03T11:05:14.654Z,60.39
2017-12-03T11:06:14.520Z,60.64
2017-12-03T11:07:14.384Z,61.99
2017-12-03T11:08:14.251Z,62.84
2017-12-03T11:09:14.119Z,62.94
2017-12-03T11:10:13.986Z,61.71
2017-12-03T11:11:13.852Z,61.43
2017-12-03T11:12:13.722Z,60.86
2017-12-03T11:13:13.635Z,61.52
2017-12-03T11:14:13.495Z,61.33
2017-12-03T11:15:13.371Z,60.58
2017-12-03T11:16:13.223Z,59.73
2017-12-03T11:17:13.050Z,59.26
2017-12-03T11:18:12.915Z,60.02
2017-12-03T11:19:12.784Z,59.26
2017-12-03T11:20:12.648Z,60.14
2017-12-03T11:21:12.518Z,60.24
2017-12-03T11:22:12.388Z,59.86
2017-12-03T11:23:12.252Z,60.02
2017-12-03T11:24:12.119Z,59.26
2017-12-03T11:25:11.982Z,59.54
2017-12-03T11:26:11.852Z,60.27
2017-12-03T11:27:11.717Z,60.93
2017-12-03T11:28:11.583Z,61.68
2017-12-03T11:29:11.456Z,62.09
2017-12-03T11:30:11.316Z,61.90
2017-12-03T11:31:11.184Z,62.09
2017-12-03T11:32:11.050Z,61.43
2017-12-03T11:33:10.917Z,61.71
2017-12-03T11:34:10.785Z,63.03
2017-12-03T11:35:10.652Z,62.94
2017-12-03T11:36:10.518Z,61.80
2017-12-03T11:37:10.385Z,60.77
2017-12-03T11:38:10.252Z,60.86
2017-12-03T11:39:10.119Z,60.68
2017-12-03T11:40:09.986Z,60.58
2017-12-03T11:41:09.853Z,60.11
2017-12-03T11:42:09.716Z,60.86
2017-12-03T11:43:09.587Z,60.30
2017-12-03T11:44:09.452Z,60.58
2017-12-03T11:45:09.318Z,59.73
2017-12-03T11:46:09.185Z,59.26
2017-12-03T11:47:09.052Z,59.45
2017-12-03T11:48:08.920Z,60.11
2017-12-03T11:49:08.789Z,60.77
2017-12-03T11:50:08.653Z,60.68
2017-12-03T11:51:08.518Z,61.58
2017-12-03T11:52:08.388Z,61.80
2017-12-03T11:53:08.257Z,62.56
2017-12-03T11:54:08.119Z,62.84
2017-12-03T11:55:07.986Z,62.75
2017-12-03T11:56:07.853Z,62.94
2017-12-03T11:57:07.722Z,61.52
2017-12-03T11:58:07.586Z,61.61
2017-12-03T11:59:07.455Z,61.99
2017-12-03T12:00:07.321Z,60.86
2017-12-03T12:01:07.186Z,60.77
2017-12-03T12:02:07.052Z,60.77
2017-12-03T12:03:06.920Z,60.68
2017-12-03T12:04:06.789Z,61.33
2017-12-03T12:05:06.652Z,61.71
2017-12-03T12:06:06.529Z,61.15
2017-12-03T12:07:06.385Z,60.86
2017-12-03T12:08:06.254Z,60.86
2017-12-03T12:09:06.119Z,61.90
2017-12-03T12:10:05.987Z,61.61
2017-12-03T12:11:05.855Z,62.84
2017-12-03T12:12:05.725Z,61.55
2017-12-03T12:13:05.588Z,60.86
2017-12-03T12:14:05.455Z,60.05
2017-12-03T12:15:05.324Z,60.33
2017-12-03T12:16:05.190Z,59.57
2017-12-03T12:17:05.054Z,59.48
2017-12-03T12:18:04.920Z,58.69
2017-12-03T12:19:04.788Z,58.69
2017-12-03T12:20:04.656Z,59.54
2017-12-03T12:21:04.521Z,59.92
2017-12-03T12:22:04.392Z,59.26
2017-12-03T12:23:04.256Z,59.45
2017-12-03T12:24:04.123Z,59.95
2017-12-03T12:25:03.990Z,60.14
2017-12-03T12:26:03.858Z,59.95
2017-12-03T12:27:03.734Z,59.95
2017-12-03T12:28:03.591Z,59.76
2017-12-03T12:29:03.509Z,59.10
2017-12-03T12:30:03.351Z,59.57
2017-12-03T12:31:03.210Z,59.76
2017-12-03T12:32:03.074Z,59.26
2017-12-03T12:33:02.931Z,59.45
2017-12-03T12:34:02.796Z,60.11
2017-12-03T12:35:02.667Z,60.61
2017-12-03T12:36:02.807Z,59.95
2017-12-03T12:37:02.400Z,59.57
2017-12-03T12:38:02.267Z,58.72
2017-12-03T12:39:02.138Z,58.72
2017-12-03T12:40:02.001Z,58.53
2017-12-03T12:41:01.869Z,58.91
2017-12-03T12:42:01.752Z,57.78
2017-12-03T12:43:01.630Z,56.74
2017-12-03T12:44:01.472Z,56.36
2017-12-03T12:45:01.348Z,56.39
2017-12-03T12:46:01.209Z,56.30
2017-12-03T12:47:01.078Z,55.80
2017-12-03T12:48:00.949Z,56.17
2017-12-03T12:49:00.816Z,55.89
2017-12-03T12:50:00.747Z,57.12
2017-12-03T12:51:00.552Z,57.12